createdAt,value
2019-04-23T00:07:08.145Z,95571.48
2019-04-23T00:11:05.880Z,95565.37
2019-04-23T00:15:10.639Z,95564.89
2019-04-23T00:19:10.342Z,95546.86
2019-04-23T00:23:16.430Z,95552.96
2019-04-23T00:27:28.820Z,95547.41
2019-04-23T00:31:24.637Z,95544.20
2019-04-23T00:35:25.714Z,95538.38
2019-04-23T00:39:38.977Z,95536.53
2019-04-23T00:43:32.600Z,95467.94
2019-04-23T00:47:38.140Z,95527.77
2019-04-23T00:51:42.713Z,95527.25
2019-04-23T00:55:47.680Z,95522.51
2019-04-23T01:00:02.027Z,95506.85
2019-04-23T01:03:51.820Z,95493.34
2019-04-23T01:07:58.335Z,95497.61
2019-04-23T01:12:07.026Z,95496.00
2019-04-23T01:16:07.263Z,95491.50
2019-04-23T01:20:14.248Z,95484.08
2019-04-23T01:24:09.576Z,95490.42
2019-04-23T01:28:35.624Z,95479.05
2019-04-23T01:32:36.958Z,95478.53
2019-04-23T01:36:35.645Z,95472.70
2019-04-23T01:40:40.643Z,95482.23
2019-04-23T01:44:50.346Z,95477.45
2019-04-23T01:48:51.952Z,95470.06
2019-04-23T01:56:56.772Z,95453.63
2019-04-23T02:00:59.377Z,95447.81
2019-04-23T02:05:09.374Z,95441.99
2019-04-23T02:13:17.482Z,95443.56
2019-04-23T02:17:16.653Z,95438.81
2019-04-23T02:21:36.612Z,95436.96
2019-04-23T02:25:44.085Z,95432.74
2019-04-23T02:30:00.729Z,95433.25
2019-04-23T02:33:49.842Z,95426.90
2019-04-23T02:42:49.662Z,95420.03
2019-04-23T02:46:31.687Z,95407.05
2019-04-23T02:54:50.961Z,95337.16
2019-04-23T02:58:54.486Z,95389.59
2019-04-23T03:03:01.874Z,95394.34
2019-04-23T03:07:09.496Z,95393.81
2019-04-23T03:11:07.401Z,95387.47
2019-04-23T03:15:13.189Z,95388.00
2019-04-23T03:19:13.528Z,95380.32
2019-04-23T03:23:29.021Z,95380.05
2019-04-23T03:27:31.888Z,95386.94
2019-04-23T03:32:45.596Z,95379.27
2019-04-23T03:36:17.257Z,95378.47
2019-04-23T03:39:51.258Z,95378.74
2019-04-23T03:43:37.412Z,95385.88
2019-04-23T03:47:56.720Z,95370.80
2019-04-23T03:51:52.280Z,95377.62
2019-04-23T03:55:56.196Z,95374.22
2019-04-23T04:00:07.783Z,95372.61
2019-04-23T04:04:22.866Z,95369.95
2019-04-23T04:08:09.711Z,95366.00
2019-04-23T04:12:07.849Z,95364.41
2019-04-23T04:20:15.222Z,95358.83
2019-04-23T04:24:27.665Z,95351.19
2019-04-23T04:32:24.667Z,95357.52
2019-04-23T04:36:26.448Z,95358.32
2019-04-23T04:44:41.186Z,95355.69
2019-04-23T04:48:40.238Z,95354.09
2019-04-23T04:52:46.946Z,95360.99
2019-04-23T05:01:06.163Z,95348.81
2019-04-23T05:05:05.566Z,95356.23
2019-04-23T05:09:06.800Z,95347.73
2019-04-23T05:17:16.889Z,95345.88
2019-04-23T05:21:12.512Z,95346.12
2019-04-23T05:25:12.562Z,95346.35
2019-04-23T05:29:11.186Z,95343.92
2019-04-23T05:37:28.319Z,95337.20
2019-04-23T05:45:29.807Z,95339.74
2019-04-23T05:49:31.224Z,95335.50
2019-04-23T05:53:40.886Z,95344.97
2019-04-23T05:57:40.554Z,95345.47
2019-04-23T06:01:53.954Z,95343.57
2019-04-23T06:09:53.167Z,95340.66
2019-04-23T06:14:05.207Z,95339.03
2019-04-23T06:18:06.662Z,95341.11
2019-04-23T06:22:22.354Z,95333.36
2019-04-23T06:26:17.945Z,95331.83
2019-04-23T06:30:07.934Z,95329.18
2019-04-23T06:34:20.360Z,95328.34
2019-04-23T06:42:18.055Z,95331.85
2019-04-23T06:46:28.927Z,95331.45
2019-04-23T06:50:35.495Z,95325.41
2019-04-23T06:58:37.441Z,95324.50
2019-04-23T07:02:51.614Z,95324.88
2019-04-23T07:06:56.672Z,95328.84
2019-04-23T07:10:54.401Z,95326.13
2019-04-23T07:18:54.502Z,95321.63
2019-04-23T07:23:06.108Z,95323.23
2019-04-23T07:27:04.845Z,95324.63
2019-04-23T07:31:14.158Z,95325.08
2019-04-23T07:39:25.510Z,95312.72
2019-04-23T07:43:34.292Z,95311.18
2019-04-23T07:47:53.047Z,95319.37
2019-04-23T07:51:36.764Z,95315.20
2019-04-23T07:59:48.653Z,95313.94
2019-04-23T08:03:48.124Z,95315.98
2019-04-23T08:07:55.831Z,95309.84
2019-04-23T08:11:56.977Z,95310.44
2019-04-23T08:16:08.841Z,95315.47
2019-04-23T08:24:25.799Z,95314.16
2019-04-23T08:28:41.936Z,95309.84
2019-04-23T08:32:24.987Z,95314.47
2019-04-23T08:36:41.960Z,95309.61
2019-04-23T08:40:42.851Z,95307.78
2019-04-23T08:45:03.116Z,95303.80
2019-04-23T08:49:02.980Z,95300.97
2019-04-23T08:53:09.962Z,95299.28
2019-04-23T08:57:12.108Z,95293.13
2019-04-23T09:05:32.338Z,95295.36
2019-04-23T09:09:24.938Z,95292.87
2019-04-23T09:17:27.761Z,95284.80
2019-04-23T09:21:27.766Z,95296.27
2019-04-23T09:25:34.727Z,95297.58
2019-04-23T09:33:46.416Z,95299.69
2019-04-23T09:37:59.767Z,95291.58
2019-04-23T09:42:09.211Z,95292.30
2019-04-23T09:54:37.401Z,95295.14
2019-04-23T09:58:22.353Z,95293.53
2019-04-23T10:02:28.180Z,95300.59
2019-04-23T10:06:19.069Z,95305.69
2019-04-23T10:10:16.452Z,95292.53
2019-04-23T10:14:20.693Z,95285.32
2019-04-23T10:18:24.395Z,95279.00
2019-04-23T10:22:27.267Z,95270.33
2019-04-23T10:26:30.290Z,95271.20
2019-04-23T10:30:32.978Z,95268.56
2019-04-23T10:34:45.983Z,95267.27
2019-04-23T10:38:41.549Z,95259.21
2019-04-23T10:42:44.625Z,95266.98
2019-04-23T10:47:34.048Z,95256.81
2019-04-23T10:51:51.639Z,95259.97
2019-04-23T10:59:44.201Z,95256.23
2019-04-23T11:07:42.250Z,95252.09
2019-04-23T11:12:12.511Z,95254.60
2019-04-23T11:16:41.991Z,95257.69
2019-04-23T11:20:15.803Z,95250.90
2019-04-23T11:24:27.740Z,95245.11
2019-04-23T11:28:22.656Z,95239.42
2019-04-23T11:32:42.860Z,95247.31
2019-04-23T11:44:36.469Z,95236.44
2019-04-23T11:49:02.379Z,95245.00
2019-04-23T11:52:48.824Z,95236.66
2019-04-23T12:05:21.621Z,95232.96
2019-04-23T12:09:40.150Z,95230.72
2019-04-23T12:14:02.421Z,95236.80
2019-04-23T12:18:03.273Z,95238.58
2019-04-23T12:22:15.171Z,95236.09
2019-04-23T12:26:11.577Z,95243.09
2019-04-23T12:34:16.579Z,95230.73
2019-04-23T12:42:43.539Z,95219.39
2019-04-23T12:46:30.054Z,95216.80
2019-04-23T12:54:47.087Z,95217.68
2019-04-23T12:58:33.890Z,95216.36
2019-04-23T13:06:45.834Z,95207.15
2019-04-23T13:10:45.356Z,95201.72
2019-04-23T13:14:57.649Z,95206.94
2019-04-23T13:19:06.277Z,95205.70
2019-04-23T13:23:12.750Z,95203.25
2019-04-23T13:27:12.016Z,95202.83
2019-04-23T13:35:27.608Z,95204.00
2019-04-23T13:39:20.666Z,95197.92
2019-04-23T13:43:29.642Z,95206.60
2019-04-23T13:47:42.963Z,95195.81
2019-04-23T13:51:30.598Z,95204.67
2019-04-23T13:55:26.697Z,95201.81
2019-04-23T14:03:47.986Z,95203.83
2019-04-23T14:07:54.107Z,95196.89
2019-04-23T14:11:45.151Z,95198.30
2019-04-23T14:20:04.982Z,95200.20
2019-04-23T14:32:16.009Z,95192.92
2019-04-23T14:36:14.080Z,95193.94
2019-04-23T14:44:20.102Z,95195.72
2019-04-23T14:52:38.665Z,95194.47
2019-04-23T14:56:39.588Z,95204.75
2019-04-23T15:00:54.050Z,95194.55
2019-04-23T15:04:47.879Z,95195.92
2019-04-23T15:08:57.289Z,95191.05
2019-04-23T15:17:00.111Z,95190.55
2019-04-23T15:21:27.936Z,95196.36
2019-04-23T15:25:26.270Z,95192.58
2019-04-23T15:29:01.722Z,95200.29
2019-04-23T15:33:36.399Z,95198.41
2019-04-23T15:41:34.746Z,95205.94
2019-04-23T15:45:28.482Z,95206.39
2019-04-23T15:49:39.294Z,95205.48
2019-04-23T15:53:37.244Z,95208.10
2019-04-23T16:01:37.405Z,95212.89
2019-04-23T16:05:21.624Z,95223.12
2019-04-23T16:09:54.130Z,95220.77
2019-04-23T16:22:57.958Z,95231.26
2019-04-23T16:27:07.978Z,95232.97
2019-04-23T16:35:28.357Z,95238.84
2019-04-23T16:39:16.546Z,95237.22
2019-04-23T16:43:18.457Z,95247.15
2019-04-23T16:47:28.485Z,95244.11
2019-04-23T16:55:37.828Z,95238.84
2019-04-23T16:59:48.139Z,95243.91
2019-04-23T17:07:52.139Z,95247.22
2019-04-23T17:12:00.103Z,95248.49
2019-04-23T17:16:00.866Z,95244.23
2019-04-23T17:20:06.481Z,95247.79
2019-04-23T17:24:16.818Z,95252.60
2019-04-23T17:28:11.202Z,95261.58
2019-04-23T17:32:18.067Z,95256.48
2019-04-23T17:40:34.218Z,95266.35
2019-04-23T17:48:40.277Z,95272.62
2019-04-23T17:53:15.213Z,95275.50
2019-04-23T17:57:02.953Z,95278.25
2019-04-23T18:01:10.957Z,95286.56
2019-04-23T18:05:06.334Z,95286.44
2019-04-23T18:09:14.551Z,95284.41
2019-04-23T18:13:15.285Z,95288.48
2019-04-23T18:17:19.341Z,95288.52
2019-04-23T18:21:36.050Z,95289.13
2019-04-23T18:25:32.357Z,95286.26
2019-04-23T18:29:53.640Z,95287.91
2019-04-23T18:37:52.512Z,95284.69
2019-04-23T18:42:03.995Z,95276.94
2019-04-23T18:46:18.550Z,95286.16
2019-04-23T18:50:24.814Z,95221.14
2019-04-23T18:54:22.658Z,95298.13
2019-04-23T18:58:22.152Z,95303.22
2019-04-23T19:02:52.344Z,95307.41
2019-04-23T19:06:34.386Z,95314.01
2019-04-23T19:11:05.070Z,95318.81
2019-04-23T19:14:59.783Z,95314.42
2019-04-23T19:18:56.318Z,95311.20
2019-04-23T19:31:25.177Z,95326.99
2019-04-23T19:35:45.550Z,95320.32
2019-04-23T19:39:26.359Z,95329.23
2019-04-23T19:43:32.847Z,95329.02
2019-04-23T19:47:37.821Z,95329.61
2019-04-23T19:51:44.286Z,95327.17
2019-04-23T19:55:49.838Z,95328.73
2019-04-23T19:59:44.707Z,95329.09
2019-04-23T20:03:50.076Z,95332.08
2019-04-23T20:07:54.538Z,95337.19
2019-04-23T20:19:57.010Z,95344.84
2019-04-23T20:24:12.997Z,95355.98
2019-04-23T20:28:24.294Z,95352.90
2019-04-23T20:36:21.698Z,95357.02
2019-04-23T20:40:30.392Z,95357.50
2019-04-23T20:48:46.948Z,95359.43
2019-04-23T20:52:30.176Z,95357.34
2019-04-23T20:56:42.488Z,95362.20
2019-04-23T21:00:57.009Z,95361.03
2019-04-23T21:04:57.069Z,95364.67
2019-04-23T21:17:08.612Z,95365.08
2019-04-23T21:21:03.672Z,95368.30
2019-04-23T21:25:09.811Z,95372.84
2019-04-23T21:29:15.646Z,95365.53
2019-04-23T21:33:17.562Z,95377.11
2019-04-23T21:37:48.033Z,95375.44
2019-04-23T21:41:52.503Z,95380.75
2019-04-23T21:46:07.251Z,95384.30
2019-04-23T21:50:17.463Z,95384.94
2019-04-23T21:53:52.676Z,95387.38
2019-04-23T22:01:58.874Z,95385.89
2019-04-23T22:06:04.457Z,95387.52
2019-04-23T22:14:27.487Z,95393.73
2019-04-23T22:18:12.878Z,95392.70
2019-04-23T22:22:16.930Z,95391.90
2019-04-23T22:26:30.423Z,95390.59
2019-04-23T22:30:33.410Z,95398.83
2019-04-23T22:34:31.270Z,95404.96
2019-04-23T22:38:49.528Z,95400.19
2019-04-23T22:43:12.787Z,95405.23
2019-04-23T22:46:53.391Z,95402.11
2019-04-23T22:50:56.782Z,95410.08
2019-04-23T22:54:57.118Z,95410.10
2019-04-23T22:59:15.090Z,95414.08
2019-04-23T23:03:21.405Z,95414.38
2019-04-23T23:07:24.413Z,95415.73
2019-04-23T23:11:14.975Z,95421.56
2019-04-23T23:19:47.104Z,95424.73
2019-04-23T23:23:36.457Z,95423.17
2019-04-23T23:27:50.226Z,95412.33
2019-04-23T23:31:49.601Z,95415.78
2019-04-23T23:40:00.035Z,95415.78
2019-04-23T23:44:08.271Z,95417.63
2019-04-23T23:47:59.457Z,95416.05
2019-04-23T23:56:10.815Z,95421.33
